sensor_id;sensor_type;location;lat;lon;timestamp;P1;durP1;ratioP1;P2;durP2;ratioP2
13443;SDS011;6794;59.218;18.218;2024-02-15T00:01:58;43.27;;;6.60;;
13443;SDS011;6794;59.218;18.218;2024-02-15T00:04:24;28.00;;;6.77;;
13443;SDS011;6794;59.218;18.218;2024-02-15T00:06:50;28.27;;;6.30;;
13443;SDS011;6794;59.218;18.218;2024-02-15T00:09:16;49.20;;;6.30;;
13443;SDS011;6794;59.218;18.218;2024-02-15T00:11:43;32.70;;;6.70;;
13443;SDS011;6794;59.218;18.218;2024-02-15T00:14:09;40.93;;;6.83;;
13443;SDS011;6794;59.218;18.218;2024-02-15T00:16:37;34.13;;;5.93;;
13443;SDS011;6794;59.218;18.218;2024-02-15T00:19:03;75.90;;;8.73;;
13443;SDS011;6794;59.218;18.218;2024-02-15T00:21:29;97.93;;;10.10;;
13443;SDS011;6794;59.218;18.218;2024-02-15T00:23:55;65.73;;;8.10;;
13443;SDS011;6794;59.218;18.218;2024-02-15T00:26:21;73.75;;;9.43;;
13443;SDS011;6794;59.218;18.218;2024-02-15T00:28:47;56.87;;;6.67;;
13443;SDS011;6794;59.218;18.218;2024-02-15T00:31:14;29.27;;;6.97;;
13443;SDS011;6794;59.218;18.218;2024-02-15T00:33:40;41.73;;;7.40;;
13443;SDS011;6794;59.218;18.218;2024-02-15T00:36:06;31.27;;;6.03;;
13443;SDS011;6794;59.218;18.218;2024-02-15T00:38:32;76.53;;;7.37;;
13443;SDS011;6794;59.218;18.218;2024-02-15T00:40:58;87.73;;;8.47;;
13443;SDS011;6794;59.218;18.218;2024-02-15T00:43:26;60.87;;;7.60;;
13443;SDS011;6794;59.218;18.218;2024-02-15T00:45:53;35.03;;;6.60;;
13443;SDS011;6794;59.218;18.218;2024-02-15T00:48:19;80.23;;;8.53;;
13443;SDS011;6794;59.218;18.218;2024-02-15T00:50:45;26.20;;;5.77;;
13443;SDS011;6794;59.218;18.218;2024-02-15T00:53:11;27.13;;;6.07;;
13443;SDS011;6794;59.218;18.218;2024-02-15T00:55:37;43.53;;;7.17;;
13443;SDS011;6794;59.218;18.218;2024-02-15T00:58:04;31.47;;;6.10;;
13443;SDS011;6794;59.218;18.218;2024-02-15T01:00:30;48.00;;;6.63;;
13443;SDS011;6794;59.218;18.218;2024-02-15T01:02:56;33.90;;;6.00;;
13443;SDS011;6794;59.218;18.218;2024-02-15T01:05:22;24.83;;;6.13;;
13443;SDS011;6794;59.218;18.218;2024-02-15T01:07:49;93.30;;;8.33;;
13443;SDS011;6794;59.218;18.218;2024-02-15T01:10:15;95.77;;;9.23;;
13443;SDS011;6794;59.218;18.218;2024-02-15T01:12:42;111.03;;;10.63;;
13443;SDS011;6794;59.218;18.218;2024-02-15T01:15:09;31.23;;;6.13;;
13443;SDS011;6794;59.218;18.218;2024-02-15T01:17:35;52.10;;;6.93;;
13443;SDS011;6794;59.218;18.218;2024-02-15T01:20:01;75.93;;;7.63;;
13443;SDS011;6794;59.218;18.218;2024-02-15T01:22:27;89.00;;;8.50;;
13443;SDS011;6794;59.218;18.218;2024-02-15T01:24:53;114.63;;;11.15;;
13443;SDS011;6794;59.218;18.218;2024-02-15T01:27:19;76.57;;;8.63;;
13443;SDS011;6794;59.218;18.218;2024-02-15T01:29:46;111.03;;;8.40;;
13443;SDS011;6794;59.218;18.218;2024-02-15T01:32:12;103.33;;;8.97;;
13443;SDS011;6794;59.218;18.218;2024-02-15T01:34:38;38.47;;;5.63;;
13443;SDS011;6794;59.218;18.218;2024-02-15T01:37:04;78.80;;;7.43;;
13443;SDS011;6794;59.218;18.218;2024-02-15T01:39:30;49.63;;;6.03;;
13443;SDS011;6794;59.218;18.218;2024-02-15T01:41:56;44.87;;;6.20;;
13443;SDS011;6794;59.218;18.218;2024-02-15T01:44:23;31.83;;;5.90;;
13443;SDS011;6794;59.218;18.218;2024-02-15T01:46:50;24.73;;;5.60;;
13443;SDS011;6794;59.218;18.218;2024-02-15T01:49:22;20.73;;;4.83;;
13443;SDS011;6794;59.218;18.218;2024-02-15T01:51:49;39.67;;;5.13;;
13443;SDS011;6794;59.218;18.218;2024-02-15T01:54:17;52.35;;;7.40;;
13443;SDS011;6794;59.218;18.218;2024-02-15T01:56:43;24.97;;;6.33;;
13443;SDS011;6794;59.218;18.218;2024-02-15T01:59:10;18.73;;;4.43;;
13443;SDS011;6794;59.218;18.218;2024-02-15T02:01:36;36.03;;;5.13;;
13443;SDS011;6794;59.218;18.218;2024-02-15T02:04:03;24.17;;;5.00;;
13443;SDS011;6794;59.218;18.218;2024-02-15T02:06:29;43.50;;;5.97;;
13443;SDS011;6794;59.218;18.218;2024-02-15T02:08:56;49.70;;;5.77;;
13443;SDS011;6794;59.218;18.218;2024-02-15T02:11:22;41.53;;;5.53;;
13443;SDS011;6794;59.218;18.218;2024-02-15T02:13:48;45.03;;;5.33;;
13443;SDS011;6794;59.218;18.218;2024-02-15T02:16:25;46.10;;;5.00;;
13443;SDS011;6794;59.218;18.218;2024-02-15T02:18:52;34.90;;;4.70;;
13443;SDS011;6794;59.218;18.218;2024-02-15T02:21:18;51.90;;;5.90;;
13443;SDS011;6794;59.218;18.218;2024-02-15T02:23:44;47.60;;;5.20;;
13443;SDS011;6794;59.218;18.218;2024-02-15T02:26:12;22.93;;;3.93;;
13443;SDS011;6794;59.218;18.218;2024-02-15T02:28:38;29.17;;;3.73;;
13443;SDS011;6794;59.218;18.218;2024-02-15T02:31:04;24.13;;;4.03;;
13443;SDS011;6794;59.218;18.218;2024-02-15T02:33:31;16.50;;;3.57;;
13443;SDS011;6794;59.218;18.218;2024-02-15T02:35:58;13.33;;;3.30;;
13443;SDS011;6794;59.218;18.218;2024-02-15T02:38:24;15.23;;;3.70;;
13443;SDS011;6794;59.218;18.218;2024-02-15T02:40:51;13.33;;;3.33;;
13443;SDS011;6794;59.218;18.218;2024-02-15T02:43:17;12.97;;;3.10;;
13443;SDS011;6794;59.218;18.218;2024-02-15T02:45:44;11.80;;;4.00;;
13443;SDS011;6794;59.218;18.218;2024-02-15T02:48:13;10.53;;;3.37;;
13443;SDS011;6794;59.218;18.218;2024-02-15T02:50:39;19.30;;;5.03;;
13443;SDS011;6794;59.218;18.218;2024-02-15T02:53:05;9.20;;;3.63;;
13443;SDS011;6794;59.218;18.218;2024-02-15T02:55:31;12.50;;;3.90;;
13443;SDS011;6794;59.218;18.218;2024-02-15T02:57:57;10.07;;;3.50;;
13443;SDS011;6794;59.218;18.218;2024-02-15T03:00:23;9.27;;;3.03;;
13443;SDS011;6794;59.218;18.218;2024-02-15T03:02:49;6.97;;;2.83;;
13443;SDS011;6794;59.218;18.218;2024-02-15T03:05:15;5.10;;;2.70;;
13443;SDS011;6794;59.218;18.218;2024-02-15T03:07:41;10.10;;;3.27;;
13443;SDS011;6794;59.218;18.218;2024-02-15T03:10:07;7.30;;;2.93;;
13443;SDS011;6794;59.218;18.218;2024-02-15T03:12:35;4.87;;;2.53;;
13443;SDS011;6794;59.218;18.218;2024-02-15T03:15:01;5.47;;;2.63;;
13443;SDS011;6794;59.218;18.218;2024-02-15T03:17:28;6.65;;;3.15;;
13443;SDS011;6794;59.218;18.218;2024-02-15T03:19:56;4.30;;;2.40;;
13443;SDS011;6794;59.218;18.218;2024-02-15T03:22:22;3.77;;;2.57;;
13443;SDS011;6794;59.218;18.218;2024-02-15T03:24:50;3.03;;;2.50;;
13443;SDS011;6794;59.218;18.218;2024-02-15T03:27:17;4.20;;;2.23;;
13443;SDS011;6794;59.218;18.218;2024-02-15T03:29:43;6.87;;;2.97;;
13443;SDS011;6794;59.218;18.218;2024-02-15T03:32:09;4.90;;;2.67;;
13443;SDS011;6794;59.218;18.218;2024-02-15T03:34:35;4.93;;;2.60;;
13443;SDS011;6794;59.218;18.218;2024-02-15T03:37:01;10.33;;;3.17;;
13443;SDS011;6794;59.218;18.218;2024-02-15T03:39:29;6.43;;;3.47;;
13443;SDS011;6794;59.218;18.218;2024-02-15T03:41:55;7.77;;;3.57;;
13443;SDS011;6794;59.218;18.218;2024-02-15T03:44:23;11.97;;;3.40;;
13443;SDS011;6794;59.218;18.218;2024-02-15T03:46:54;16.60;;;3.70;;
13443;SDS011;6794;59.218;18.218;2024-02-15T03:49:20;12.77;;;3.77;;
13443;SDS011;6794;59.218;18.218;2024-02-15T03:51:47;12.23;;;3.30;;
13443;SDS011;6794;59.218;18.218;2024-02-15T03:54:14;13.23;;;3.67;;
13443;SDS011;6794;59.218;18.218;2024-02-15T03:56:47;8.20;;;3.30;;
13443;SDS011;6794;59.218;18.218;2024-02-15T03:59:16;12.70;;;3.63;;
13443;SDS011;6794;59.218;18.218;2024-02-15T04:01:43;8.03;;;3.63;;
13443;SDS011;6794;59.218;18.218;2024-02-15T04:04:09;9.27;;;3.43;;
13443;SDS011;6794;59.218;18.218;2024-02-15T04:06:35;10.73;;;3.90;;
13443;SDS011;6794;59.218;18.218;2024-02-15T04:09:01;7.10;;;3.03;;
13443;SDS011;6794;59.218;18.218;2024-02-15T04:11:27;7.77;;;2.80;;
13443;SDS011;6794;59.218;18.218;2024-02-15T04:14:03;6.67;;;3.50;;
13443;SDS011;6794;59.218;18.218;2024-02-15T04:16:40;12.53;;;3.27;;
13443;SDS011;6794;59.218;18.218;2024-02-15T04:19:06;14.83;;;3.70;;
13443;SDS011;6794;59.218;18.218;2024-02-15T04:21:32;9.50;;;3.83;;
13443;SDS011;6794;59.218;18.218;2024-02-15T04:23:58;22.20;;;4.17;;
13443;SDS011;6794;59.218;18.218;2024-02-15T04:26:24;18.00;;;3.90;;
13443;SDS011;6794;59.218;18.218;2024-02-15T04:28:52;37.93;;;4.60;;
13443;SDS011;6794;59.218;18.218;2024-02-15T04:31:18;43.73;;;5.73;;
13443;SDS011;6794;59.218;18.218;2024-02-15T04:33:54;100.47;;;6.63;;
13443;SDS011;6794;59.218;18.218;2024-02-15T04:36:21;90.10;;;6.50;;
13443;SDS011;6794;59.218;18.218;2024-02-15T04:38:50;88.47;;;6.57;;
13443;SDS011;6794;59.218;18.218;2024-02-15T04:41:17;55.83;;;5.23;;
13443;SDS011;6794;59.218;18.218;2024-02-15T04:43:50;40.10;;;4.43;;
13443;SDS011;6794;59.218;18.218;2024-02-15T04:46:17;49.30;;;4.73;;
13443;SDS011;6794;59.218;18.218;2024-02-15T04:48:47;76.00;;;5.23;;
13443;SDS011;6794;59.218;18.218;2024-02-15T04:51:14;49.83;;;4.40;;
13443;SDS011;6794;59.218;18.218;2024-02-15T04:53:45;61.40;;;5.43;;
13443;SDS011;6794;59.218;18.218;2024-02-15T04:56:14;62.40;;;5.10;;
13443;SDS011;6794;59.218;18.218;2024-02-15T04:58:41;71.30;;;5.57;;
13443;SDS011;6794;59.218;18.218;2024-02-15T05:01:14;45.57;;;4.83;;
13443;SDS011;6794;59.218;18.218;2024-02-15T05:03:41;69.90;;;5.83;;
13443;SDS011;6794;59.218;18.218;2024-02-15T05:06:07;63.07;;;5.30;;
13443;SDS011;6794;59.218;18.218;2024-02-15T05:08:33;63.07;;;5.13;;
13443;SDS011;6794;59.218;18.218;2024-02-15T05:11:02;49.17;;;4.40;;
13443;SDS011;6794;59.218;18.218;2024-02-15T05:13:29;82.30;;;6.67;;
13443;SDS011;6794;59.218;18.218;2024-02-15T05:15:55;62.97;;;5.53;;
13443;SDS011;6794;59.218;18.218;2024-02-15T05:18:21;58.23;;;5.40;;
13443;SDS011;6794;59.218;18.218;2024-02-15T05:20:47;67.13;;;5.97;;
13443;SDS011;6794;59.218;18.218;2024-02-15T05:23:13;101.80;;;12.73;;
13443;SDS011;6794;59.218;18.218;2024-02-15T05:25:42;82.73;;;7.67;;
13443;SDS011;6794;59.218;18.218;2024-02-15T05:28:09;47.00;;;4.60;;
13443;SDS011;6794;59.218;18.218;2024-02-15T05:30:35;52.30;;;6.30;;
13443;SDS011;6794;59.218;18.218;2024-02-15T05:33:02;90.75;;;7.93;;
13443;SDS011;6794;59.218;18.218;2024-02-15T05:35:29;48.60;;;5.00;;
13443;SDS011;6794;59.218;18.218;2024-02-15T05:37:55;46.20;;;4.97;;
13443;SDS011;6794;59.218;18.218;2024-02-15T05:40:21;28.20;;;4.27;;
13443;SDS011;6794;59.218;18.218;2024-02-15T05:42:48;59.70;;;5.13;;
13443;SDS011;6794;59.218;18.218;2024-02-15T05:47:54;56.60;;;5.17;;
13443;SDS011;6794;59.218;18.218;2024-02-15T05:50:21;73.83;;;6.20;;
13443;SDS011;6794;59.218;18.218;2024-02-15T05:52:48;48.57;;;4.67;;
13443;SDS011;6794;59.218;18.218;2024-02-15T05:55:16;54.10;;;5.47;;
13443;SDS011;6794;59.218;18.218;2024-02-15T05:57:44;45.37;;;4.90;;
13443;SDS011;6794;59.218;18.218;2024-02-15T06:00:10;124.00;;;11.23;;
13443;SDS011;6794;59.218;18.218;2024-02-15T06:02:36;55.07;;;6.57;;
13443;SDS011;6794;59.218;18.218;2024-02-15T06:05:24;47.23;;;5.23;;
13443;SDS011;6794;59.218;18.218;2024-02-15T06:07:53;62.07;;;6.47;;
13443;SDS011;6794;59.218;18.218;2024-02-15T06:10:19;66.60;;;6.23;;
13443;SDS011;6794;59.218;18.218;2024-02-15T06:12:45;76.87;;;5.80;;
13443;SDS011;6794;59.218;18.218;2024-02-15T06:15:11;47.63;;;5.20;;
13443;SDS011;6794;59.218;18.218;2024-02-15T06:17:41;50.80;;;5.70;;
13443;SDS011;6794;59.218;18.218;2024-02-15T06:20:10;57.20;;;7.03;;
13443;SDS011;6794;59.218;18.218;2024-02-15T06:22:37;94.07;;;7.23;;
13443;SDS011;6794;59.218;18.218;2024-02-15T06:25:03;92.90;;;7.77;;
13443;SDS011;6794;59.218;18.218;2024-02-15T06:27:30;118.68;;;12.05;;
13443;SDS011;6794;59.218;18.218;2024-02-15T06:29:57;131.07;;;10.70;;
13443;SDS011;6794;59.218;18.218;2024-02-15T06:32:42;40.27;;;7.37;;
13443;SDS011;6794;59.218;18.218;2024-02-15T06:35:27;82.07;;;8.17;;
13443;SDS011;6794;59.218;18.218;2024-02-15T06:38:12;86.87;;;8.37;;
13443;SDS011;6794;59.218;18.218;2024-02-15T06:40:56;59.10;;;7.30;;
13443;SDS011;6794;59.218;18.218;2024-02-15T06:43:23;94.70;;;8.67;;
13443;SDS011;6794;59.218;18.218;2024-02-15T06:45:49;65.60;;;7.93;;
13443;SDS011;6794;59.218;18.218;2024-02-15T06:48:16;91.77;;;9.17;;
13443;SDS011;6794;59.218;18.218;2024-02-15T06:50:42;64.77;;;9.30;;
13443;SDS011;6794;59.218;18.218;2024-02-15T06:53:08;208.60;;;15.33;;
13443;SDS011;6794;59.218;18.218;2024-02-15T06:55:34;93.60;;;9.47;;
13443;SDS011;6794;59.218;18.218;2024-02-15T06:58:01;89.30;;;9.10;;
13443;SDS011;6794;59.218;18.218;2024-02-15T07:00:27;75.90;;;9.30;;
13443;SDS011;6794;59.218;18.218;2024-02-15T07:02:55;89.93;;;9.37;;
13443;SDS011;6794;59.218;18.218;2024-02-15T07:05:21;66.20;;;8.43;;
13443;SDS011;6794;59.218;18.218;2024-02-15T07:07:48;102.27;;;11.27;;
13443;SDS011;6794;59.218;18.218;2024-02-15T07:10:14;58.13;;;8.63;;
13443;SDS011;6794;59.218;18.218;2024-02-15T07:12:44;67.83;;;9.77;;
13443;SDS011;6794;59.218;18.218;2024-02-15T07:15:10;88.47;;;10.43;;
13443;SDS011;6794;59.218;18.218;2024-02-15T07:17:37;54.07;;;9.00;;
13443;SDS011;6794;59.218;18.218;2024-02-15T07:20:03;100.30;;;14.20;;
13443;SDS011;6794;59.218;18.218;2024-02-15T07:22:30;139.00;;;14.63;;
13443;SDS011;6794;59.218;18.218;2024-02-15T07:24:56;188.97;;;16.57;;
13443;SDS011;6794;59.218;18.218;2024-02-15T07:27:22;52.70;;;8.77;;
13443;SDS011;6794;59.218;18.218;2024-02-15T07:29:51;71.73;;;9.83;;
13443;SDS011;6794;59.218;18.218;2024-02-15T07:32:17;83.23;;;10.57;;
13443;SDS011;6794;59.218;18.218;2024-02-15T07:34:45;163.47;;;14.27;;
13443;SDS011;6794;59.218;18.218;2024-02-15T07:37:13;157.23;;;13.17;;
13443;SDS011;6794;59.218;18.218;2024-02-15T07:39:41;88.80;;;12.40;;
13443;SDS011;6794;59.218;18.218;2024-02-15T07:42:07;68.47;;;11.03;;
13443;SDS011;6794;59.218;18.218;2024-02-15T07:44:34;83.93;;;13.98;;
13443;SDS011;6794;59.218;18.218;2024-02-15T07:47:01;138.50;;;12.90;;
13443;SDS011;6794;59.218;18.218;2024-02-15T07:49:30;64.07;;;9.63;;
13443;SDS011;6794;59.218;18.218;2024-02-15T07:51:58;53.70;;;10.13;;
13443;SDS011;6794;59.218;18.218;2024-02-15T07:54:25;68.77;;;10.70;;
13443;SDS011;6794;59.218;18.218;2024-02-15T07:56:51;70.93;;;11.00;;
13443;SDS011;6794;59.218;18.218;2024-02-15T07:59:17;139.47;;;14.43;;
13443;SDS011;6794;59.218;18.218;2024-02-15T08:01:46;133.57;;;13.60;;
13443;SDS011;6794;59.218;18.218;2024-02-15T08:04:15;78.33;;;11.47;;
13443;SDS011;6794;59.218;18.218;2024-02-15T08:06:42;92.80;;;12.97;;
13443;SDS011;6794;59.218;18.218;2024-02-15T08:09:08;88.33;;;12.13;;
13443;SDS011;6794;59.218;18.218;2024-02-15T08:11:41;72.47;;;10.57;;
13443;SDS011;6794;59.218;18.218;2024-02-15T08:14:08;31.53;;;8.43;;
13443;SDS011;6794;59.218;18.218;2024-02-15T08:16:35;37.70;;;9.00;;
13443;SDS011;6794;59.218;18.218;2024-02-15T08:19:06;64.83;;;9.93;;
13443;SDS011;6794;59.218;18.218;2024-02-15T08:21:33;59.50;;;10.30;;
13443;SDS011;6794;59.218;18.218;2024-02-15T08:24:01;95.00;;;12.97;;
13443;SDS011;6794;59.218;18.218;2024-02-15T08:26:33;84.50;;;10.47;;
13443;SDS011;6794;59.218;18.218;2024-02-15T08:29:00;76.55;;;11.27;;
13443;SDS011;6794;59.218;18.218;2024-02-15T08:31:28;119.50;;;15.13;;
13443;SDS011;6794;59.218;18.218;2024-02-15T08:33:55;56.27;;;10.47;;
13443;SDS011;6794;59.218;18.218;2024-02-15T08:36:21;72.63;;;10.93;;
13443;SDS011;6794;59.218;18.218;2024-02-15T08:38:48;32.90;;;9.27;;
13443;SDS011;6794;59.218;18.218;2024-02-15T08:41:15;38.77;;;9.27;;
13443;SDS011;6794;59.218;18.218;2024-02-15T08:43:43;71.80;;;10.37;;
13443;SDS011;6794;59.218;18.218;2024-02-15T08:46:09;24.10;;;8.60;;
13443;SDS011;6794;59.218;18.218;2024-02-15T08:48:35;24.57;;;8.00;;
13443;SDS011;6794;59.218;18.218;2024-02-15T08:51:02;27.05;;;10.75;;
13443;SDS011;6794;59.218;18.218;2024-02-15T08:53:28;37.27;;;9.83;;
13443;SDS011;6794;59.218;18.218;2024-02-15T08:55:54;20.67;;;7.43;;
13443;SDS011;6794;59.218;18.218;2024-02-15T08:58:20;20.17;;;7.80;;
13443;SDS011;6794;59.218;18.218;2024-02-15T09:00:46;19.87;;;7.97;;
13443;SDS011;6794;59.218;18.218;2024-02-15T09:03:12;24.53;;;8.53;;
13443;SDS011;6794;59.218;18.218;2024-02-15T09:05:42;19.13;;;7.60;;
13443;SDS011;6794;59.218;18.218;2024-02-15T09:08:08;16.25;;;7.97;;
13443;SDS011;6794;59.218;18.218;2024-02-15T09:10:34;16.47;;;7.80;;
13443;SDS011;6794;59.218;18.218;2024-02-15T09:13:04;13.60;;;7.60;;
13443;SDS011;6794;59.218;18.218;2024-02-15T09:15:31;12.13;;;7.37;;
13443;SDS011;6794;59.218;18.218;2024-02-15T09:17:57;12.03;;;7.17;;
13443;SDS011;6794;59.218;18.218;2024-02-15T09:20:24;12.90;;;6.93;;
13443;SDS011;6794;59.218;18.218;2024-02-15T09:22:53;19.33;;;8.73;;
13443;SDS011;6794;59.218;18.218;2024-02-15T09:25:20;26.00;;;8.52;;
13443;SDS011;6794;59.218;18.218;2024-02-15T09:27:49;10.07;;;6.73;;
13443;SDS011;6794;59.218;18.218;2024-02-15T09:30:16;14.23;;;7.53;;
13443;SDS011;6794;59.218;18.218;2024-02-15T09:32:42;19.33;;;8.10;;
13443;SDS011;6794;59.218;18.218;2024-02-15T09:35:08;11.30;;;6.43;;
13443;SDS011;6794;59.218;18.218;2024-02-15T09:37:37;11.87;;;6.43;;
13443;SDS011;6794;59.218;18.218;2024-02-15T09:40:12;12.90;;;6.20;;
13443;SDS011;6794;59.218;18.218;2024-02-15T09:42:40;10.97;;;8.30;;
13443;SDS011;6794;59.218;18.218;2024-02-15T09:45:07;8.07;;;6.03;;
13443;SDS011;6794;59.218;18.218;2024-02-15T09:47:40;9.43;;;6.20;;
13443;SDS011;6794;59.218;18.218;2024-02-15T09:50:10;9.97;;;6.50;;
13443;SDS011;6794;59.218;18.218;2024-02-15T09:52:40;8.03;;;5.00;;
13443;SDS011;6794;59.218;18.218;2024-02-15T09:55:07;8.77;;;6.70;;
13443;SDS011;6794;59.218;18.218;2024-02-15T09:57:40;10.80;;;7.20;;
13443;SDS011;6794;59.218;18.218;2024-02-15T10:00:07;10.60;;;6.70;;
13443;SDS011;6794;59.218;18.218;2024-02-15T10:02:35;13.23;;;7.00;;
13443;SDS011;6794;59.218;18.218;2024-02-15T10:05:02;11.37;;;6.13;;
13443;SDS011;6794;59.218;18.218;2024-02-15T10:07:28;22.40;;;7.37;;
13443;SDS011;6794;59.218;18.218;2024-02-15T10:09:54;15.53;;;6.90;;
13443;SDS011;6794;59.218;18.218;2024-02-15T10:12:20;14.88;;;7.20;;
13443;SDS011;6794;59.218;18.218;2024-02-15T10:14:49;31.55;;;10.88;;
13443;SDS011;6794;59.218;18.218;2024-02-15T10:17:16;28.80;;;9.37;;
13443;SDS011;6794;59.218;18.218;2024-02-15T10:19:44;29.13;;;8.30;;
13443;SDS011;6794;59.218;18.218;2024-02-15T10:22:12;33.20;;;9.23;;
13443;SDS011;6794;59.218;18.218;2024-02-15T10:24:39;46.47;;;12.00;;
13443;SDS011;6794;59.218;18.218;2024-02-15T10:27:05;26.13;;;7.70;;
13443;SDS011;6794;59.218;18.218;2024-02-15T10:29:34;44.70;;;9.40;;
13443;SDS011;6794;59.218;18.218;2024-02-15T10:32:01;30.70;;;8.77;;
13443;SDS011;6794;59.218;18.218;2024-02-15T10:34:27;32.17;;;7.67;;
13443;SDS011;6794;59.218;18.218;2024-02-15T10:36:54;46.03;;;9.97;;
13443;SDS011;6794;59.218;18.218;2024-02-15T10:39:23;43.60;;;8.17;;
13443;SDS011;6794;59.218;18.218;2024-02-15T10:41:53;30.50;;;8.30;;
13443;SDS011;6794;59.218;18.218;2024-02-15T10:44:23;50.78;;;12.88;;
13443;SDS011;6794;59.218;18.218;2024-02-15T10:46:51;26.63;;;8.43;;
13443;SDS011;6794;59.218;18.218;2024-02-15T10:49:18;35.23;;;9.03;;
13443;SDS011;6794;59.218;18.218;2024-02-15T10:51:45;25.60;;;7.80;;
13443;SDS011;6794;59.218;18.218;2024-02-15T10:54:15;31.03;;;9.03;;
13443;SDS011;6794;59.218;18.218;2024-02-15T10:56:43;21.83;;;8.23;;
13443;SDS011;6794;59.218;18.218;2024-02-15T11:01:40;53.67;;;10.77;;
13443;SDS011;6794;59.218;18.218;2024-02-15T11:04:07;24.07;;;7.97;;
13443;SDS011;6794;59.218;18.218;2024-02-15T11:06:35;51.27;;;11.20;;
13443;SDS011;6794;59.218;18.218;2024-02-15T11:09:01;27.47;;;8.67;;
13443;SDS011;6794;59.218;18.218;2024-02-15T11:11:28;34.00;;;10.40;;
13443;SDS011;6794;59.218;18.218;2024-02-15T11:16:43;13.27;;;8.40;;
13443;SDS011;6794;59.218;18.218;2024-02-15T11:19:10;20.23;;;8.03;;
13443;SDS011;6794;59.218;18.218;2024-02-15T11:21:53;12.00;;;7.10;;
13443;SDS011;6794;59.218;18.218;2024-02-15T11:24:31;12.07;;;7.47;;
13443;SDS011;6794;59.218;18.218;2024-02-15T11:27:00;11.20;;;6.90;;
13443;SDS011;6794;59.218;18.218;2024-02-15T11:32:37;17.20;;;8.40;;
13443;SDS011;6794;59.218;18.218;2024-02-15T11:35:07;14.43;;;7.70;;
13443;SDS011;6794;59.218;18.218;2024-02-15T11:45:19;16.90;;;7.80;;
13443;SDS011;6794;59.218;18.218;2024-02-15T11:47:49;12.77;;;7.23;;
13443;SDS011;6794;59.218;18.218;2024-02-15T11:50:16;8.80;;;6.80;;
13443;SDS011;6794;59.218;18.218;2024-02-15T11:52:49;13.03;;;7.40;;
13443;SDS011;6794;59.218;18.218;2024-02-15T11:55:19;12.90;;;7.10;;
13443;SDS011;6794;59.218;18.218;2024-02-15T11:57:58;23.05;;;8.50;;
13443;SDS011;6794;59.218;18.218;2024-02-15T12:00:43;13.53;;;7.77;;
13443;SDS011;6794;59.218;18.218;2024-02-15T12:03:28;10.90;;;6.67;;
13443;SDS011;6794;59.218;18.218;2024-02-15T12:06:16;10.00;;;6.23;;
13443;SDS011;6794;59.218;18.218;2024-02-15T12:09:01;15.00;;;7.37;;
13443;SDS011;6794;59.218;18.218;2024-02-15T12:11:46;14.00;;;8.50;;
13443;SDS011;6794;59.218;18.218;2024-02-15T12:14:31;9.47;;;7.10;;
13443;SDS011;6794;59.218;18.218;2024-02-15T12:17:16;13.27;;;6.77;;
13443;SDS011;6794;59.218;18.218;2024-02-15T12:20:02;14.27;;;7.20;;
13443;SDS011;6794;59.218;18.218;2024-02-15T12:22:39;15.87;;;8.30;;
13443;SDS011;6794;59.218;18.218;2024-02-15T12:25:12;9.43;;;5.97;;
13443;SDS011;6794;59.218;18.218;2024-02-15T12:27:43;12.67;;;6.47;;
13443;SDS011;6794;59.218;18.218;2024-02-15T12:30:18;9.30;;;6.00;;
13443;SDS011;6794;59.218;18.218;2024-02-15T12:32:50;10.27;;;6.40;;
13443;SDS011;6794;59.218;18.218;2024-02-15T12:35:19;9.33;;;6.50;;
13443;SDS011;6794;59.218;18.218;2024-02-15T12:37:46;10.53;;;7.47;;
13443;SDS011;6794;59.218;18.218;2024-02-15T12:40:19;23.02;;;7.80;;
13443;SDS011;6794;59.218;18.218;2024-02-15T12:42:47;23.13;;;7.37;;
13443;SDS011;6794;59.218;18.218;2024-02-15T12:45:16;32.90;;;9.00;;
13443;SDS011;6794;59.218;18.218;2024-02-15T12:47:52;22.83;;;8.43;;
13443;SDS011;6794;59.218;18.218;2024-02-15T12:50:22;23.27;;;7.70;;
13443;SDS011;6794;59.218;18.218;2024-02-15T12:52:49;19.37;;;7.83;;
13443;SDS011;6794;59.218;18.218;2024-02-15T12:55:19;27.07;;;7.60;;
13443;SDS011;6794;59.218;18.218;2024-02-15T12:57:47;16.07;;;7.40;;
13443;SDS011;6794;59.218;18.218;2024-02-15T13:00:15;25.93;;;8.50;;
13443;SDS011;6794;59.218;18.218;2024-02-15T13:02:46;31.43;;;8.20;;
13443;SDS011;6794;59.218;18.218;2024-02-15T13:05:14;15.47;;;7.30;;
13443;SDS011;6794;59.218;18.218;2024-02-15T13:07:40;24.23;;;8.80;;
13443;SDS011;6794;59.218;18.218;2024-02-15T13:10:06;19.23;;;7.40;;
13443;SDS011;6794;59.218;18.218;2024-02-15T13:12:34;18.03;;;7.47;;
13443;SDS011;6794;59.218;18.218;2024-02-15T13:15:01;19.20;;;7.53;;
13443;SDS011;6794;59.218;18.218;2024-02-15T13:17:28;39.87;;;8.83;;
13443;SDS011;6794;59.218;18.218;2024-02-15T13:19:54;40.00;;;11.87;;
13443;SDS011;6794;59.218;18.218;2024-02-15T13:22:28;38.35;;;10.02;;
13443;SDS011;6794;59.218;18.218;2024-02-15T13:24:54;29.43;;;8.57;;
13443;SDS011;6794;59.218;18.218;2024-02-15T13:27:20;30.73;;;8.13;;
13443;SDS011;6794;59.218;18.218;2024-02-15T13:29:48;17.77;;;7.17;;
13443;SDS011;6794;59.218;18.218;2024-02-15T13:32:14;32.20;;;7.83;;
13443;SDS011;6794;59.218;18.218;2024-02-15T13:34:44;20.45;;;6.97;;
13443;SDS011;6794;59.218;18.218;2024-02-15T13:37:10;32.57;;;7.57;;
13443;SDS011;6794;59.218;18.218;2024-02-15T13:39:39;44.03;;;7.53;;
13443;SDS011;6794;59.218;18.218;2024-02-15T13:42:08;63.80;;;10.10;;
13443;SDS011;6794;59.218;18.218;2024-02-15T13:44:34;67.33;;;8.93;;
13443;SDS011;6794;59.218;18.218;2024-02-15T13:47:00;36.30;;;7.30;;
13443;SDS011;6794;59.218;18.218;2024-02-15T13:49:26;59.15;;;10.25;;
13443;SDS011;6794;59.218;18.218;2024-02-15T13:51:52;63.43;;;8.73;;
13443;SDS011;6794;59.218;18.218;2024-02-15T13:54:18;86.07;;;10.13;;
13443;SDS011;6794;59.218;18.218;2024-02-15T13:56:47;35.67;;;7.27;;
13443;SDS011;6794;59.218;18.218;2024-02-15T13:59:13;31.53;;;7.03;;
13443;SDS011;6794;59.218;18.218;2024-02-15T14:01:39;53.40;;;8.03;;
13443;SDS011;6794;59.218;18.218;2024-02-15T14:04:10;49.50;;;7.50;;
13443;SDS011;6794;59.218;18.218;2024-02-15T14:06:36;43.57;;;7.60;;
13443;SDS011;6794;59.218;18.218;2024-02-15T14:09:05;56.13;;;8.80;;
13443;SDS011;6794;59.218;18.218;2024-02-15T14:11:31;62.63;;;9.23;;
13443;SDS011;6794;59.218;18.218;2024-02-15T14:13:57;28.83;;;6.37;;
13443;SDS011;6794;59.218;18.218;2024-02-15T14:16:24;33.63;;;8.77;;
13443;SDS011;6794;59.218;18.218;2024-02-15T14:18:50;13.33;;;6.73;;
13443;SDS011;6794;59.218;18.218;2024-02-15T14:21:16;20.67;;;6.87;;
13443;SDS011;6794;59.218;18.218;2024-02-15T14:23:43;12.17;;;6.70;;
13443;SDS011;6794;59.218;18.218;2024-02-15T14:26:09;26.50;;;7.90;;
13443;SDS011;6794;59.218;18.218;2024-02-15T14:28:35;19.37;;;6.87;;
13443;SDS011;6794;59.218;18.218;2024-02-15T14:31:06;29.67;;;9.93;;
13443;SDS011;6794;59.218;18.218;2024-02-15T14:33:51;36.30;;;9.13;;
13443;SDS011;6794;59.218;18.218;2024-02-15T14:36:17;49.20;;;8.77;;
13443;SDS011;6794;59.218;18.218;2024-02-15T14:38:43;54.80;;;9.53;;
13443;SDS011;6794;59.218;18.218;2024-02-15T14:41:09;117.50;;;11.40;;
13443;SDS011;6794;59.218;18.218;2024-02-15T14:43:36;35.57;;;8.57;;
13443;SDS011;6794;59.218;18.218;2024-02-15T14:46:03;71.80;;;11.10;;
13443;SDS011;6794;59.218;18.218;2024-02-15T14:48:33;85.37;;;11.07;;
13443;SDS011;6794;59.218;18.218;2024-02-15T14:50:59;66.43;;;10.63;;
13443;SDS011;6794;59.218;18.218;2024-02-15T14:53:27;47.87;;;8.13;;
13443;SDS011;6794;59.218;18.218;2024-02-15T14:55:53;59.03;;;8.53;;
13443;SDS011;6794;59.218;18.218;2024-02-15T14:58:19;63.73;;;9.33;;